createdAt,value
2023-04-14T00:01:37.190Z,8.10
2023-04-14T00:06:39.289Z,8.10
2023-04-14T00:11:41.665Z,8.20
2023-04-14T00:16:46.260Z,8.20
2023-04-14T00:21:48.509Z,8.20
2023-04-14T00:26:50.690Z,8.20
2023-04-14T00:31:53.144Z,8.20
2023-04-14T00:36:55.210Z,8.10
2023-04-14T00:41:57.394Z,8.10
2023-04-14T00:47:01.815Z,8.20
2023-04-14T00:52:04.813Z,8.20
2023-04-14T00:57:08.086Z,8.20
2023-04-14T01:02:10.834Z,8.20
2023-04-14T01:07:13.105Z,8.20
2023-04-14T01:12:27.163Z,8.30
2023-04-14T01:17:32.487Z,8.30
2023-04-14T01:22:42.981Z,8.40
2023-04-14T01:28:03.182Z,8.40
2023-04-14T01:33:08.158Z,8.40
2023-04-14T01:38:19.274Z,8.50
2023-04-14T01:43:27.223Z,8.50
2023-04-14T01:48:30.776Z,8.40
2023-04-14T01:53:36.169Z,8.40
2023-04-14T01:58:39.682Z,8.40
2023-04-14T02:03:43.440Z,8.40
2023-04-14T02:08:46.747Z,8.30
2023-04-14T02:13:49.578Z,8.30
2023-04-14T02:18:51.875Z,8.30
2023-04-14T02:23:54.005Z,8.40
2023-04-14T02:29:07.660Z,8.40
2023-04-14T02:34:15.481Z,8.40
2023-04-14T02:39:23.478Z,8.40
2023-04-14T02:44:29.900Z,8.40
2023-04-14T02:49:42.123Z,8.50
2023-04-14T02:54:46.033Z,8.50
2023-04-14T02:59:49.943Z,8.60
2023-04-14T03:04:53.879Z,8.70
2023-04-14T03:10:06.239Z,8.70
2023-04-14T03:15:10.006Z,8.80
2023-04-14T03:20:14.276Z,8.80
2023-04-14T03:25:16.698Z,8.90
2023-04-14T03:30:25.925Z,8.90
2023-04-14T03:35:29.248Z,9.00
2023-04-14T03:40:33.305Z,9.00
2023-04-14T03:45:39.171Z,9.00
2023-04-14T03:50:45.761Z,9.00
2023-04-14T03:55:51.626Z,9.10
2023-04-14T04:00:55.422Z,9.10
2023-04-14T04:05:58.251Z,9.10
2023-04-14T04:11:05.768Z,9.10
2023-04-14T04:16:10.102Z,9.10
2023-04-14T04:21:14.618Z,9.10
2023-04-14T04:26:18.492Z,9.10
2023-04-14T04:31:24.002Z,9.10
2023-04-14T04:36:31.910Z,9.30
2023-04-14T04:41:34.419Z,9.30
2023-04-14T04:46:50.017Z,9.40
2023-04-14T04:51:53.130Z,9.50
2023-04-14T04:56:57.703Z,9.50
2023-04-14T05:01:59.930Z,9.50
2023-04-14T05:07:03.612Z,9.60
2023-04-14T05:12:05.933Z,9.70
2023-04-14T05:17:08.004Z,9.80
2023-04-14T05:22:10.421Z,9.90
2023-04-14T05:27:14.596Z,10.00
2023-04-14T05:32:17.108Z,10.20
2023-04-14T05:37:19.640Z,10.20
2023-04-14T05:42:21.885Z,10.30
2023-04-14T05:47:23.976Z,10.30
2023-04-14T05:52:26.457Z,10.30
2023-04-14T05:57:28.641Z,10.40
2023-04-14T06:02:30.912Z,10.40
2023-04-14T06:07:33.929Z,10.30
2023-04-14T06:12:37.688Z,10.40
2023-04-14T06:17:40.186Z,10.40
2023-04-14T06:22:43.355Z,10.50
2023-04-14T06:27:45.553Z,10.60
2023-04-14T06:32:48.721Z,10.60
2023-04-14T06:37:51.700Z,10.70
2023-04-14T06:42:53.856Z,10.70
2023-04-14T06:47:56.242Z,10.70
2023-04-14T06:52:58.417Z,10.70
2023-04-14T06:58:00.820Z,10.60
2023-04-14T07:03:03.071Z,10.50
2023-04-14T07:08:05.218Z,10.60
2023-04-14T07:13:07.391Z,10.80
2023-04-14T07:18:09.565Z,10.80
2023-04-14T07:23:11.774Z,10.90
2023-04-14T07:28:13.874Z,11.00
2023-04-14T07:33:18.839Z,11.00
2023-04-14T07:38:20.940Z,11.10
2023-04-14T07:43:23.957Z,11.20
2023-04-14T07:48:26.133Z,11.20
2023-04-14T07:53:28.420Z,11.20
2023-04-14T07:58:30.550Z,11.30
2023-04-14T08:03:33.028Z,11.20
2023-04-14T08:08:36.141Z,11.00
2023-04-14T08:13:38.273Z,10.90
2023-04-14T08:18:41.522Z,10.80
2023-04-14T08:23:43.838Z,10.80
2023-04-14T08:28:47.113Z,10.80
2023-04-14T08:33:49.239Z,10.70
2023-04-14T08:38:53.354Z,10.70
2023-04-14T08:43:55.754Z,10.70
2023-04-14T08:49:05.859Z,10.70
2023-04-14T08:54:10.435Z,10.80
2023-04-14T08:59:12.612Z,11.00
2023-04-14T09:04:15.424Z,11.30
2023-04-14T09:09:18.635Z,11.50
2023-04-14T09:14:21.772Z,11.50
2023-04-14T09:19:24.874Z,11.30
2023-04-14T09:24:34.165Z,11.50
2023-04-14T09:29:37.671Z,11.80
2023-04-14T09:34:56.537Z,11.80
2023-04-14T09:40:00.438Z,12.20
2023-04-14T09:45:05.194Z,12.30
2023-04-14T09:50:07.931Z,12.20
2023-04-14T09:55:14.347Z,12.20
2023-04-14T10:00:16.808Z,12.30
2023-04-14T10:05:31.076Z,12.10
2023-04-14T10:10:35.483Z,12.30
2023-04-14T10:15:37.843Z,12.30
2023-04-14T10:20:40.357Z,12.20
2023-04-14T10:25:42.867Z,12.10
2023-04-14T10:30:45.302Z,12.10
2023-04-14T10:35:53.710Z,12.10
2023-04-14T10:40:59.811Z,12.40
2023-04-14T10:46:02.723Z,12.30
2023-04-14T10:51:09.921Z,12.10
2023-04-14T10:56:12.872Z,11.90
2023-04-14T11:01:32.830Z,12.30
2023-04-14T11:06:47.003Z,12.80
2023-04-14T11:11:49.267Z,12.60
2023-04-14T11:17:02.780Z,12.10
2023-04-14T11:22:06.926Z,12.00
2023-04-14T11:27:12.919Z,12.30
2023-04-14T11:32:15.140Z,12.50
2023-04-14T11:37:17.490Z,12.80
2023-04-14T11:42:19.741Z,12.90
2023-04-14T11:47:22.346Z,13.00
2023-04-14T11:52:24.998Z,13.30
2023-04-14T11:57:27.438Z,13.50
2023-04-14T12:02:30.473Z,13.60
2023-04-14T12:07:33.679Z,13.40
2023-04-14T12:12:40.350Z,13.20
2023-04-14T12:17:42.841Z,13.20
2023-04-14T12:22:45.824Z,13.20
2023-04-14T12:27:55.770Z,13.20
2023-04-14T12:32:59.242Z,13.10
2023-04-14T12:38:01.425Z,13.20
2023-04-14T12:43:03.936Z,13.30
2023-04-14T12:48:09.359Z,13.30
2023-04-14T12:53:29.383Z,13.00
2023-04-14T12:58:31.988Z,12.80
2023-04-14T13:03:41.419Z,12.60
2023-04-14T13:08:48.715Z,12.30
2023-04-14T13:13:54.536Z,12.20
2023-04-14T13:18:56.952Z,12.00
2023-04-14T13:23:59.133Z,12.00
2023-04-14T13:29:01.570Z,11.90
2023-04-14T13:34:04.398Z,12.00
2023-04-14T13:39:06.504Z,12.10
2023-04-14T13:44:09.149Z,12.30
2023-04-14T13:49:12.194Z,12.40
2023-04-14T13:54:14.463Z,12.50
2023-04-14T13:59:17.327Z,12.10
2023-04-14T14:04:19.656Z,12.00
2023-04-14T14:09:21.981Z,12.00
2023-04-14T14:14:25.817Z,11.90
2023-04-14T14:19:28.251Z,11.80
2023-04-14T14:24:30.494Z,11.70
2023-04-14T14:29:35.059Z,11.50
2023-04-14T14:34:38.987Z,11.60
2023-04-14T14:39:41.321Z,11.80
2023-04-14T14:44:43.456Z,12.10
2023-04-14T14:49:52.984Z,12.30
2023-04-14T14:55:03.576Z,12.30
2023-04-14T15:00:07.819Z,12.40
2023-04-14T15:05:10.029Z,12.30
2023-04-14T15:10:12.194Z,12.00
2023-04-14T15:15:19.062Z,11.90
2023-04-14T15:20:22.055Z,11.90
2023-04-14T15:25:24.334Z,12.10
2023-04-14T15:30:27.481Z,12.30
2023-04-14T15:35:29.675Z,12.10
2023-04-14T15:40:32.107Z,12.20
2023-04-14T15:45:34.354Z,12.10
2023-04-14T15:50:44.770Z,11.90
2023-04-14T15:55:50.193Z,11.80
2023-04-14T16:00:52.463Z,11.70
2023-04-14T16:06:06.812Z,11.70
2023-04-14T16:11:19.329Z,11.80
2023-04-14T16:16:21.947Z,11.60
2023-04-14T16:21:24.217Z,11.70
2023-04-14T16:26:26.353Z,11.60
2023-04-14T16:31:28.728Z,11.50
2023-04-14T16:36:31.058Z,11.40
2023-04-14T16:41:33.802Z,11.30
2023-04-14T16:46:36.006Z,11.30
2023-04-14T16:51:38.638Z,11.30
2023-04-14T16:56:41.011Z,11.30
2023-04-14T17:01:45.240Z,11.20
2023-04-14T17:06:48.083Z,11.10
2023-04-14T17:11:50.322Z,11.10
2023-04-14T17:16:52.798Z,11.00
2023-04-14T17:21:55.079Z,11.00
2023-04-14T17:26:57.499Z,11.00
2023-04-14T17:32:01.100Z,10.90
2023-04-14T17:37:04.974Z,10.90
2023-04-14T17:42:07.515Z,10.80
2023-04-14T17:47:15.718Z,10.80
2023-04-14T17:52:18.541Z,10.90
2023-04-14T17:57:23.001Z,10.80
2023-04-14T18:02:30.737Z,10.80
2023-04-14T18:07:33.307Z,10.80
2023-04-14T18:12:36.563Z,10.80
2023-04-14T18:17:38.755Z,10.80
2023-04-14T18:22:41.405Z,10.70
2023-04-14T18:32:51.425Z,10.70
2023-04-14T18:37:54.791Z,10.60
2023-04-14T18:43:02.127Z,10.60
2023-04-14T18:48:08.332Z,10.50
2023-04-14T18:53:11.583Z,10.50
2023-04-14T18:58:13.697Z,10.30
2023-04-14T19:03:17.056Z,10.30
2023-04-14T19:08:19.437Z,10.20
2023-04-14T19:13:22.289Z,10.10
2023-04-14T19:18:25.650Z,10.00
2023-04-14T19:23:28.298Z,9.90
2023-04-14T19:28:33.862Z,9.80
2023-04-14T19:33:36.089Z,9.80
2023-04-14T19:38:39.651Z,9.80
2023-04-14T19:43:42.053Z,9.90
2023-04-14T19:48:45.220Z,9.90
2023-04-14T19:53:48.204Z,9.90
2023-04-14T19:58:51.807Z,9.90
2023-04-14T20:04:05.601Z,9.90
2023-04-14T20:09:16.261Z,9.90
2023-04-14T20:14:18.715Z,9.80
2023-04-14T20:19:23.243Z,9.70
2023-04-14T20:24:25.766Z,9.60
2023-04-14T20:29:27.930Z,9.70
2023-04-14T20:34:30.133Z,9.60
2023-04-14T20:39:32.240Z,9.60
2023-04-14T20:44:34.327Z,9.60
2023-04-14T20:49:36.957Z,9.50
2023-04-14T20:54:39.414Z,9.60
2023-04-14T20:59:41.688Z,9.60
2023-04-14T21:04:43.760Z,9.60
2023-04-14T21:09:45.956Z,9.50
2023-04-14T21:15:42.438Z,9.50
2023-04-14T21:20:10.957Z,9.40
2023-04-14T21:25:13.154Z,9.40
2023-04-14T21:30:15.633Z,9.40
2023-04-14T21:35:17.822Z,9.40
2023-04-14T21:40:20.410Z,9.30
2023-04-14T21:45:22.808Z,9.30
2023-04-14T21:50:25.136Z,9.20
2023-04-14T21:55:27.542Z,9.20
2023-04-14T22:00:31.026Z,9.20
2023-04-14T22:05:33.457Z,9.20
2023-04-14T22:10:39.497Z,9.10
2023-04-14T22:15:46.791Z,9.10
2023-04-14T22:20:49.316Z,9.00
2023-04-14T22:25:51.629Z,9.10
2023-04-14T22:30:54.307Z,9.20
2023-04-14T22:36:05.625Z,9.10
2023-04-14T22:41:08.944Z,9.10
2023-04-14T22:46:31.123Z,9.10
2023-04-14T22:51:49.893Z,9.00
2023-04-14T22:56:52.297Z,8.90
2023-04-14T23:01:59.551Z,8.90
2023-04-14T23:07:02.173Z,9.00
2023-04-14T23:12:05.717Z,8.90
2023-04-14T23:17:07.798Z,8.90
2023-04-14T23:22:12.900Z,8.90
2023-04-14T23:27:19.404Z,8.90
2023-04-14T23:32:22.449Z,8.70
2023-04-14T23:37:29.063Z,8.70
2023-04-14T23:42:36.985Z,8.70
2023-04-14T23:47:42.321Z,8.70
2023-04-14T23:52:58.452Z,8.70
2023-04-14T23:58:04.662Z,8.60
